createdAt,value
2019-03-09T00:00:28.049Z,0
2019-03-09T00:01:28.046Z,0
2019-03-09T00:02:27.984Z,0
2019-03-09T00:03:28.039Z,0
2019-03-09T00:04:27.975Z,0
2019-03-09T00:05:28.042Z,0
2019-03-09T00:06:28.042Z,0
2019-03-09T00:07:27.974Z,0
2019-03-09T00:08:28.044Z,0
2019-03-09T00:09:27.988Z,0
2019-03-09T00:10:28.043Z,0
2019-03-09T00:11:27.999Z,0
2019-03-09T00:12:28.061Z,0
2019-03-09T00:13:28.057Z,0
2019-03-09T00:14:28.001Z,0
2019-03-09T00:15:28.066Z,0
2019-03-09T00:16:28.056Z,0
2019-03-09T00:17:28.066Z,0
2019-03-09T00:18:28.064Z,0
2019-03-09T00:19:28.000Z,0
2019-03-09T00:20:28.064Z,0
2019-03-09T00:21:28.062Z,0
2019-03-09T00:22:28.071Z,0
2019-03-09T00:23:28.063Z,0
2019-03-09T00:24:28.067Z,0
2019-03-09T00:25:28.109Z,0
2019-03-09T00:26:28.030Z,0
2019-03-09T00:27:30.166Z,0
2019-03-09T00:28:27.993Z,0
2019-03-09T00:29:27.999Z,0
2019-03-09T00:30:27.966Z,0
2019-03-09T00:31:28.070Z,0
2019-03-09T00:32:28.011Z,0
2019-03-09T00:33:28.004Z,0
2019-03-09T00:34:28.072Z,0
2019-03-09T00:35:28.029Z,0
2019-03-09T00:36:28.217Z,0
2019-03-09T00:37:28.073Z,0
2019-03-09T00:38:28.073Z,0
2019-03-09T00:39:28.003Z,0
2019-03-09T00:40:28.035Z,0
2019-03-09T00:41:28.008Z,0
2019-03-09T00:42:28.008Z,0
2019-03-09T00:43:28.074Z,0
2019-03-09T00:44:28.005Z,0
2019-03-09T00:45:28.071Z,0
2019-03-09T00:46:28.003Z,0
2019-03-09T00:47:28.002Z,0
2019-03-09T00:48:28.077Z,0
2019-03-09T00:49:28.002Z,0
2019-03-09T00:50:28.075Z,0
2019-03-09T00:51:28.077Z,0
2019-03-09T00:52:28.076Z,0
2019-03-09T00:53:28.028Z,0
2019-03-09T00:54:28.076Z,0
2019-03-09T00:55:28.004Z,0
2019-03-09T00:56:28.006Z,0
2019-03-09T00:57:28.083Z,0
2019-03-09T00:58:28.018Z,0
2019-03-09T00:59:28.083Z,0
2019-03-09T01:00:28.010Z,0
2019-03-09T01:01:28.092Z,0
2019-03-09T01:02:28.023Z,0
2019-03-09T01:03:28.091Z,0
2019-03-09T01:04:28.022Z,0
2019-03-09T01:05:28.096Z,0
2019-03-09T01:06:28.058Z,0
2019-03-09T01:07:28.024Z,0
2019-03-09T01:08:28.026Z,0
2019-03-09T01:09:28.027Z,0
2019-03-09T01:10:28.028Z,0
2019-03-09T01:11:28.105Z,0
2019-03-09T01:12:28.029Z,0
2019-03-09T01:13:28.043Z,0
2019-03-09T01:14:28.148Z,0
2019-03-09T01:15:28.103Z,0
2019-03-09T01:16:28.065Z,0
2019-03-09T01:17:28.203Z,0
2019-03-09T01:18:28.102Z,0
2019-03-09T01:19:28.041Z,0
2019-03-09T01:20:28.036Z,0
2019-03-09T01:21:28.111Z,0
2019-03-09T01:22:28.035Z,0
2019-03-09T01:23:28.038Z,0
2019-03-09T01:24:28.107Z,0
2019-03-09T01:25:28.035Z,0
2019-03-09T01:26:28.101Z,0
2019-03-09T01:27:28.038Z,0
2019-03-09T01:28:28.101Z,0
2019-03-09T01:29:28.049Z,0
2019-03-09T01:30:28.045Z,0
2019-03-09T01:31:28.042Z,0
2019-03-09T01:32:28.122Z,0
2019-03-09T01:33:28.116Z,0
2019-03-09T01:34:28.064Z,0
2019-03-09T01:35:28.078Z,0
2019-03-09T01:36:28.045Z,0
2019-03-09T01:37:28.057Z,0
2019-03-09T01:38:28.056Z,0
2019-03-09T01:39:28.118Z,0
2019-03-09T01:40:28.120Z,0
2019-03-09T01:41:28.045Z,0
2019-03-09T01:42:28.116Z,0
2019-03-09T01:43:28.042Z,0
2019-03-09T01:44:28.112Z,0
2019-03-09T01:45:28.042Z,0
2019-03-09T01:46:28.121Z,0
2019-03-09T01:47:28.040Z,0
2019-03-09T01:48:28.113Z,0
2019-03-09T01:49:28.082Z,0
2019-03-09T01:50:28.125Z,0
2019-03-09T01:51:28.051Z,0
2019-03-09T01:52:28.152Z,0
2019-03-09T01:53:36.382Z,0
2019-03-09T01:54:28.075Z,0
2019-03-09T01:55:28.140Z,0
2019-03-09T01:56:28.129Z,0
2019-03-09T01:57:28.134Z,0
2019-03-09T01:58:28.132Z,0
2019-03-09T01:59:28.064Z,0
2019-03-09T02:00:28.148Z,0
2019-03-09T02:01:28.032Z,0
2019-03-09T02:02:28.124Z,0
2019-03-09T02:03:28.059Z,0
2019-03-09T02:04:28.125Z,0
2019-03-09T02:05:28.183Z,0
2019-03-09T02:06:28.060Z,0
2019-03-09T02:07:28.131Z,0
2019-03-09T02:08:28.059Z,0
2019-03-09T02:09:28.063Z,0
2019-03-09T02:10:28.131Z,0
2019-03-09T02:11:28.067Z,0
2019-03-09T02:12:28.153Z,0
2019-03-09T02:13:28.155Z,0
2019-03-09T02:14:28.070Z,0
2019-03-09T02:15:28.145Z,0
2019-03-09T02:16:28.149Z,0
2019-03-09T02:17:28.107Z,0
2019-03-09T02:18:28.090Z,0
2019-03-09T02:19:28.075Z,0
2019-03-09T02:20:28.146Z,0
2019-03-09T02:21:28.152Z,0
2019-03-09T02:22:28.140Z,0
2019-03-09T02:23:28.067Z,0
2019-03-09T02:24:28.096Z,0
2019-03-09T02:25:28.074Z,0
2019-03-09T02:26:28.099Z,0
2019-03-09T02:27:28.081Z,0
2019-03-09T02:28:28.203Z,0
2019-03-09T02:29:28.179Z,0
2019-03-09T02:30:28.082Z,0
2019-03-09T02:31:28.149Z,0
2019-03-09T02:32:28.088Z,0
2019-03-09T02:33:28.147Z,0
2019-03-09T02:34:28.152Z,0
2019-03-09T02:35:28.082Z,0
2019-03-09T02:36:28.150Z,0
2019-03-09T02:37:28.084Z,0
2019-03-09T02:38:28.154Z,0
2019-03-09T02:39:28.082Z,0
2019-03-09T02:40:28.081Z,0
2019-03-09T02:41:28.158Z,0
2019-03-09T02:42:28.091Z,0
2019-03-09T02:43:28.176Z,0
2019-03-09T02:44:28.205Z,0
2019-03-09T02:45:28.146Z,0
2019-03-09T02:46:28.116Z,0
2019-03-09T02:47:28.176Z,0
2019-03-09T02:48:28.161Z,0
2019-03-09T02:49:28.185Z,0
2019-03-09T02:50:28.113Z,0
2019-03-09T02:51:28.103Z,0
2019-03-09T02:52:28.076Z,0
2019-03-09T02:53:28.113Z,0
2019-03-09T02:54:28.173Z,0
2019-03-09T02:55:28.103Z,0
2019-03-09T02:56:28.118Z,0
2019-03-09T02:57:28.181Z,0
2019-03-09T02:58:28.106Z,0
2019-03-09T02:59:28.119Z,0
2019-03-09T03:00:28.182Z,0
2019-03-09T03:01:28.184Z,0
2019-03-09T03:02:28.189Z,0
2019-03-09T03:03:28.147Z,0
2019-03-09T03:04:28.181Z,0
2019-03-09T03:05:28.114Z,0
2019-03-09T03:06:28.120Z,0
2019-03-09T03:07:28.185Z,0
2019-03-09T03:08:28.112Z,0
2019-03-09T03:09:28.114Z,0
2019-03-09T03:10:28.197Z,0
2019-03-09T03:11:28.122Z,0
2019-03-09T03:12:28.035Z,0
2019-03-09T03:13:28.135Z,0
2019-03-09T03:14:28.117Z,0
2019-03-09T03:15:28.077Z,0
2019-03-09T03:16:28.030Z,0
2019-03-09T03:17:28.123Z,0
2019-03-09T03:18:28.011Z,0
2019-03-09T03:19:28.018Z,0
2019-03-09T03:20:28.119Z,0
2019-03-09T03:21:28.074Z,0
2019-03-09T03:22:28.147Z,0
2019-03-09T03:23:28.157Z,0
2019-03-09T03:24:28.086Z,0
2019-03-09T03:25:28.200Z,0
2019-03-09T03:26:28.124Z,0
2019-03-09T03:27:28.144Z,0
2019-03-09T03:28:28.135Z,0
2019-03-09T03:29:28.140Z,0
2019-03-09T03:30:28.204Z,0
2019-03-09T03:31:28.204Z,0
2019-03-09T03:32:28.131Z,0
2019-03-09T03:33:28.261Z,0
2019-03-09T03:34:28.203Z,0
2019-03-09T03:35:28.132Z,0
2019-03-09T03:36:28.144Z,0
2019-03-09T03:37:28.205Z,0
2019-03-09T03:38:28.226Z,0
2019-03-09T03:39:28.176Z,0
2019-03-09T03:40:28.210Z,0
2019-03-09T03:41:28.211Z,0
2019-03-09T03:42:28.163Z,0
2019-03-09T03:43:28.097Z,0
2019-03-09T03:44:28.225Z,0
2019-03-09T03:45:28.134Z,0
2019-03-09T03:46:28.154Z,0
2019-03-09T03:47:28.210Z,0
2019-03-09T03:48:28.138Z,0
2019-03-09T03:49:28.137Z,0
2019-03-09T03:50:28.139Z,0
2019-03-09T03:51:28.228Z,0
2019-03-09T03:52:28.146Z,0
2019-03-09T03:53:28.215Z,0
2019-03-09T03:54:28.247Z,0
2019-03-09T03:55:28.219Z,0
2019-03-09T03:56:28.231Z,0
2019-03-09T03:57:28.148Z,0
2019-03-09T03:58:28.151Z,0
2019-03-09T03:59:28.152Z,0
2019-03-09T04:00:28.185Z,0
2019-03-09T04:01:28.147Z,0
2019-03-09T04:02:28.218Z,0
2019-03-09T04:03:28.222Z,0
2019-03-09T04:04:28.234Z,0
2019-03-09T04:05:28.154Z,0
2019-03-09T04:06:28.170Z,0
2019-03-09T04:07:28.167Z,0
2019-03-09T04:08:28.289Z,0
2019-03-09T04:09:28.266Z,0
2019-03-09T04:10:28.239Z,0
2019-03-09T04:11:28.232Z,0
2019-03-09T04:12:28.168Z,0
2019-03-09T04:13:28.156Z,0
2019-03-09T04:14:28.219Z,0
2019-03-09T04:15:28.219Z,0
2019-03-09T04:16:28.227Z,0
2019-03-09T04:17:28.241Z,0
2019-03-09T04:18:28.161Z,0
2019-03-09T04:19:28.296Z,0
2019-03-09T04:20:28.166Z,0
2019-03-09T04:21:28.164Z,0
2019-03-09T04:22:28.209Z,0
2019-03-09T04:23:28.221Z,0
2019-03-09T04:24:28.101Z,0
2019-03-09T04:25:28.234Z,0
2019-03-09T04:26:28.139Z,0
2019-03-09T04:27:28.217Z,0
2019-03-09T04:28:28.205Z,0
2019-03-09T04:29:28.229Z,0
2019-03-09T04:30:28.161Z,0
2019-03-09T04:31:28.196Z,0
2019-03-09T04:32:28.180Z,0
2019-03-09T04:33:28.232Z,0
2019-03-09T04:34:28.255Z,0
2019-03-09T04:35:28.219Z,0
2019-03-09T04:36:28.174Z,0
2019-03-09T04:37:28.108Z,0
2019-03-09T04:38:28.203Z,0
2019-03-09T04:39:28.221Z,0
2019-03-09T04:40:28.166Z,0
2019-03-09T04:41:28.225Z,0
2019-03-09T04:42:28.207Z,0
2019-03-09T04:43:28.168Z,0
2019-03-09T04:44:28.201Z,0
2019-03-09T04:45:28.230Z,0
2019-03-09T04:46:28.185Z,0
2019-03-09T04:47:28.242Z,0
2019-03-09T04:48:28.148Z,0
2019-03-09T04:49:28.223Z,0
2019-03-09T04:50:28.212Z,0
2019-03-09T04:51:28.125Z,0
2019-03-09T04:52:28.310Z,0
2019-03-09T04:53:28.202Z,0
2019-03-09T04:54:28.211Z,0
2019-03-09T04:55:28.184Z,0
2019-03-09T04:56:28.281Z,0
2019-03-09T04:57:28.193Z,0
2019-03-09T04:58:28.206Z,0
2019-03-09T04:59:28.187Z,0
2019-03-09T05:00:28.268Z,0
2019-03-09T05:01:28.200Z,0
2019-03-09T05:02:28.252Z,0
2019-03-09T05:03:28.197Z,0
2019-03-09T05:04:28.163Z,0
2019-03-09T05:05:28.240Z,0
2019-03-09T05:06:28.244Z,0
2019-03-09T05:07:28.252Z,0
2019-03-09T05:08:28.217Z,0
2019-03-09T05:09:28.251Z,0
2019-03-09T05:10:28.133Z,0
2019-03-09T05:11:28.125Z,0
2019-03-09T05:12:28.267Z,0
2019-03-09T05:13:28.271Z,0
2019-03-09T05:14:28.281Z,0
2019-03-09T05:15:28.206Z,0
2019-03-09T05:16:28.212Z,0
2019-03-09T05:17:28.272Z,0
2019-03-09T05:18:28.204Z,0
2019-03-09T05:19:28.170Z,0
2019-03-09T05:20:28.275Z,0
2019-03-09T05:21:28.277Z,0
2019-03-09T05:22:28.266Z,0
2019-03-09T05:23:28.198Z,0
2019-03-09T05:24:28.206Z,0
2019-03-09T05:25:28.270Z,0
2019-03-09T05:26:28.270Z,0
2019-03-09T05:27:28.280Z,0
2019-03-09T05:28:28.272Z,0
2019-03-09T05:29:28.196Z,0
2019-03-09T05:30:28.272Z,0
2019-03-09T05:31:28.271Z,0
2019-03-09T05:32:28.221Z,0
2019-03-09T05:33:28.284Z,0
2019-03-09T05:34:28.289Z,0
2019-03-09T05:35:28.218Z,0
2019-03-09T05:36:28.218Z,0
2019-03-09T05:37:28.243Z,0
2019-03-09T05:38:28.287Z,0
2019-03-09T05:39:28.188Z,0
2019-03-09T05:40:28.293Z,0
2019-03-09T05:41:28.293Z,0
2019-03-09T05:42:28.298Z,0
2019-03-09T05:43:28.320Z,0
2019-03-09T05:44:28.209Z,0
2019-03-09T05:45:28.347Z,0
2019-03-09T05:46:28.236Z,0
2019-03-09T05:47:28.244Z,0
2019-03-09T05:48:28.300Z,0
2019-03-09T05:49:28.307Z,0
2019-03-09T05:50:28.309Z,0
2019-03-09T05:51:28.227Z,0
2019-03-09T05:52:28.241Z,0
2019-03-09T05:53:28.290Z,0
2019-03-09T05:54:28.218Z,0
2019-03-09T05:55:28.293Z,0
2019-03-09T05:56:28.220Z,0
2019-03-09T05:57:28.290Z,0
2019-03-09T05:58:28.237Z,0
2019-03-09T05:59:28.291Z,0
2019-03-09T06:00:28.226Z,0
2019-03-09T06:01:28.230Z,0
2019-03-09T06:02:28.295Z,0
2019-03-09T06:03:28.237Z,0
2019-03-09T06:04:28.298Z,0
2019-03-09T06:05:28.247Z,0
2019-03-09T06:06:28.298Z,0
2019-03-09T06:07:28.223Z,0
2019-03-09T06:08:28.305Z,0
2019-03-09T06:09:28.235Z,0
2019-03-09T06:10:28.299Z,0
2019-03-09T06:11:28.235Z,0
2019-03-09T06:12:28.228Z,0
2019-03-09T06:13:28.257Z,0
2019-03-09T06:14:28.309Z,0
2019-03-09T06:15:28.316Z,0
2019-03-09T06:16:28.323Z,0
2019-03-09T06:17:28.244Z,0
2019-03-09T06:18:28.317Z,0
2019-03-09T06:19:28.297Z,0
2019-03-09T06:20:28.260Z,0
2019-03-09T06:21:28.293Z,0
2019-03-09T06:22:28.309Z,0
2019-03-09T06:23:28.278Z,0
2019-03-09T06:24:28.322Z,0
2019-03-09T06:25:28.274Z,0
2019-03-09T06:26:28.339Z,0
2019-03-09T06:27:28.322Z,0
2019-03-09T06:28:28.324Z,0
2019-03-09T06:29:28.350Z,0
2019-03-09T06:30:28.329Z,0
2019-03-09T06:31:28.317Z,0
2019-03-09T06:32:28.324Z,0
2019-03-09T06:33:28.255Z,0
2019-03-09T06:34:28.278Z,0
2019-03-09T06:35:28.325Z,0
2019-03-09T06:36:28.330Z,0
2019-03-09T06:37:28.268Z,0
2019-03-09T06:38:28.333Z,0
2019-03-09T06:39:28.279Z,0
2019-03-09T06:40:28.261Z,0
2019-03-09T06:41:28.331Z,0
2019-03-09T06:42:28.268Z,20
2019-03-09T06:43:28.263Z,26
2019-03-09T06:44:28.378Z,29
2019-03-09T06:45:28.328Z,28
2019-03-09T06:46:28.263Z,35
2019-03-09T06:47:28.302Z,34
2019-03-09T06:48:28.279Z,29
2019-03-09T06:49:28.270Z,50
2019-03-09T06:50:28.331Z,68
2019-03-09T06:51:28.273Z,80
2019-03-09T06:52:28.349Z,49
2019-03-09T06:53:28.276Z,46
2019-03-09T06:54:28.342Z,54
2019-03-09T06:55:28.238Z,54
2019-03-09T06:56:28.243Z,62
2019-03-09T06:57:28.262Z,50
2019-03-09T06:58:28.224Z,51
2019-03-09T06:59:28.309Z,50
2019-03-09T07:00:28.352Z,40
2019-03-09T07:01:28.335Z,33
2019-03-09T07:02:28.336Z,39
2019-03-09T07:03:28.188Z,34
2019-03-09T07:04:28.284Z,42
2019-03-09T07:05:28.285Z,48
2019-03-09T07:06:28.282Z,56
2019-03-09T07:07:28.276Z,109
2019-03-09T07:08:28.278Z,112
2019-03-09T07:09:28.173Z,115
2019-03-09T07:10:28.232Z,105
2019-03-09T07:11:28.295Z,87
2019-03-09T07:12:28.268Z,55
2019-03-09T07:13:28.351Z,56
2019-03-09T07:14:28.349Z,63
2019-03-09T07:15:28.301Z,59
2019-03-09T07:16:28.359Z,74
2019-03-09T07:17:28.285Z,66
2019-03-09T07:18:28.361Z,62
2019-03-09T07:19:28.292Z,124
2019-03-09T07:20:28.287Z,128
2019-03-09T07:21:28.354Z,162
2019-03-09T07:22:28.373Z,159
2019-03-09T07:23:28.361Z,187
2019-03-09T07:24:28.356Z,193
2019-03-09T07:25:28.313Z,202
2019-03-09T07:26:28.357Z,178
2019-03-09T07:27:28.308Z,202
2019-03-09T07:28:28.289Z,227
2019-03-09T07:29:28.360Z,103
2019-03-09T07:30:28.429Z,283
2019-03-09T07:31:28.361Z,278
2019-03-09T07:32:28.267Z,135
2019-03-09T07:33:28.339Z,181
2019-03-09T07:34:28.322Z,332
2019-03-09T07:35:28.265Z,204
2019-03-09T07:36:28.306Z,348
2019-03-09T07:37:28.318Z,264
2019-03-09T07:38:28.365Z,303
2019-03-09T07:39:28.346Z,279
2019-03-09T07:40:28.351Z,284
2019-03-09T07:41:28.318Z,165
2019-03-09T07:42:28.279Z,115
2019-03-09T07:43:28.327Z,131
2019-03-09T07:44:28.360Z,129
2019-03-09T07:45:28.303Z,125
2019-03-09T07:46:28.366Z,244
2019-03-09T07:47:28.277Z,160
2019-03-09T07:48:28.353Z,131
2019-03-09T07:49:28.362Z,290
2019-03-09T07:50:28.352Z,310
2019-03-09T07:51:28.227Z,338
2019-03-09T07:52:28.272Z,288
2019-03-09T07:53:28.366Z,343
2019-03-09T07:54:28.332Z,374
2019-03-09T07:55:28.340Z,376
2019-03-09T07:56:28.302Z,388
2019-03-09T07:57:28.311Z,378
2019-03-09T07:58:28.389Z,379
2019-03-09T07:59:28.379Z,315
2019-03-09T08:00:28.372Z,140
2019-03-09T08:01:28.331Z,318
2019-03-09T08:02:28.381Z,301
2019-03-09T08:03:28.392Z,331
2019-03-09T08:04:28.351Z,334
2019-03-09T08:05:28.274Z,352
2019-03-09T08:06:28.344Z,369
2019-03-09T08:07:28.313Z,356
2019-03-09T08:08:28.380Z,388
2019-03-09T08:09:28.342Z,384
2019-03-09T08:10:28.268Z,328
2019-03-09T08:11:28.403Z,415
2019-03-09T08:12:28.389Z,375
2019-03-09T08:13:28.373Z,339
2019-03-09T08:14:28.380Z,450
2019-03-09T08:15:28.383Z,495
2019-03-09T08:16:35.570Z,516
2019-03-09T08:17:28.278Z,509
2019-03-09T08:18:28.354Z,541
2019-03-09T08:19:28.388Z,305
2019-03-09T08:20:28.283Z,431
2019-03-09T08:21:28.340Z,349
2019-03-09T08:22:28.391Z,358
2019-03-09T08:23:28.379Z,365
2019-03-09T08:24:28.373Z,249
2019-03-09T08:25:28.276Z,217
2019-03-09T08:26:28.375Z,196
2019-03-09T08:27:28.318Z,178
2019-03-09T08:28:28.325Z,166
2019-03-09T08:29:28.264Z,194
2019-03-09T08:30:28.337Z,161
2019-03-09T08:31:28.296Z,228
2019-03-09T08:32:28.402Z,335
2019-03-09T08:33:28.327Z,372
2019-03-09T08:34:28.286Z,377
2019-03-09T08:35:28.346Z,500
2019-03-09T08:36:28.331Z,598
2019-03-09T08:37:28.304Z,469
2019-03-09T08:38:28.300Z,342
2019-03-09T08:39:28.343Z,306
2019-03-09T08:40:28.419Z,288
2019-03-09T08:41:28.413Z,359
2019-03-09T08:42:28.318Z,461
2019-03-09T08:43:28.413Z,453
2019-03-09T08:44:28.352Z,456
2019-03-09T08:45:28.435Z,438
2019-03-09T08:46:28.435Z,448
2019-03-09T08:47:28.352Z,459
2019-03-09T08:48:28.426Z,423
2019-03-09T08:49:28.364Z,392
2019-03-09T08:50:28.327Z,361
2019-03-09T08:51:28.350Z,345
2019-03-09T08:52:28.420Z,326
2019-03-09T08:53:28.366Z,307
2019-03-09T08:54:28.421Z,288
2019-03-09T08:55:28.391Z,283
2019-03-09T08:56:28.362Z,272
2019-03-09T08:57:28.362Z,272
2019-03-09T08:58:28.444Z,274
2019-03-09T08:59:28.397Z,285
2019-03-09T09:00:30.246Z,289
2019-03-09T09:01:28.363Z,302
2019-03-09T09:02:28.316Z,312
2019-03-09T09:03:28.359Z,337
2019-03-09T09:04:28.402Z,343
2019-03-09T09:05:28.428Z,337
2019-03-09T09:06:28.432Z,376
2019-03-09T09:07:28.463Z,383
2019-03-09T09:08:28.369Z,387
2019-03-09T09:09:28.335Z,366
2019-03-09T09:10:28.431Z,359
2019-03-09T09:11:28.440Z,360
2019-03-09T09:12:28.438Z,360
2019-03-09T09:13:28.436Z,349
2019-03-09T09:14:28.438Z,335
2019-03-09T09:15:28.313Z,331
2019-03-09T09:16:28.427Z,317
2019-03-09T09:17:28.344Z,293
2019-03-09T09:18:28.433Z,278
2019-03-09T09:19:28.330Z,264
2019-03-09T09:20:28.358Z,263
2019-03-09T09:21:28.423Z,261
2019-03-09T09:22:28.365Z,256
2019-03-09T09:23:28.430Z,250
2019-03-09T09:24:28.425Z,259
2019-03-09T09:25:28.314Z,264
2019-03-09T09:26:28.399Z,266
2019-03-09T09:27:28.409Z,276
2019-03-09T09:28:28.313Z,285
2019-03-09T09:29:28.342Z,300
2019-03-09T09:30:28.322Z,323
2019-03-09T09:31:28.375Z,328
2019-03-09T09:32:28.369Z,337
2019-03-09T09:33:28.375Z,352
2019-03-09T09:34:28.434Z,344
2019-03-09T09:35:28.440Z,346
2019-03-09T09:36:28.410Z,336
2019-03-09T09:37:28.415Z,312
2019-03-09T09:38:28.371Z,286
2019-03-09T09:39:28.441Z,271
2019-03-09T09:40:28.405Z,258
2019-03-09T09:41:28.441Z,249
2019-03-09T09:42:28.334Z,245
2019-03-09T09:43:28.390Z,246
2019-03-09T09:44:28.443Z,246
2019-03-09T09:45:28.359Z,251
2019-03-09T09:46:28.421Z,254
2019-03-09T09:47:28.438Z,256
2019-03-09T09:48:28.348Z,254
2019-03-09T09:49:28.415Z,243
2019-03-09T09:50:28.480Z,233
2019-03-09T09:51:28.437Z,236
2019-03-09T09:52:28.395Z,244
2019-03-09T09:53:28.462Z,257
2019-03-09T09:54:28.464Z,271
2019-03-09T09:55:28.474Z,287
2019-03-09T09:56:28.404Z,296
2019-03-09T09:57:28.464Z,310
2019-03-09T09:58:28.479Z,326
2019-03-09T09:59:28.472Z,321
2019-03-09T10:00:28.403Z,316
2019-03-09T10:01:28.469Z,311
2019-03-09T10:02:28.439Z,321
2019-03-09T10:03:28.408Z,330
2019-03-09T10:04:28.457Z,351
2019-03-09T10:05:28.337Z,359
2019-03-09T10:06:28.451Z,391
2019-03-09T10:07:28.344Z,446
2019-03-09T10:08:28.370Z,456
2019-03-09T10:09:28.408Z,476
2019-03-09T10:10:29.884Z,429
2019-03-09T10:11:28.366Z,450
2019-03-09T10:12:28.375Z,376
2019-03-09T10:13:28.493Z,344
2019-03-09T10:14:28.430Z,352
2019-03-09T10:15:28.396Z,403
2019-03-09T10:16:28.364Z,424
2019-03-09T10:17:28.370Z,506
2019-03-09T10:18:28.470Z,451
2019-03-09T10:19:28.477Z,459
2019-03-09T10:20:28.489Z,359
2019-03-09T10:21:28.447Z,421
2019-03-09T10:22:28.478Z,346
2019-03-09T10:24:28.426Z,387
2019-03-09T10:25:28.513Z,382
2019-03-09T10:26:28.497Z,415
2019-03-09T10:27:28.485Z,518
2019-03-09T10:28:28.425Z,595
2019-03-09T10:29:28.430Z,458
2019-03-09T10:30:28.485Z,416
2019-03-09T10:31:28.495Z,369
2019-03-09T10:32:28.427Z,346
2019-03-09T10:33:28.409Z,383
2019-03-09T10:34:28.461Z,340
2019-03-09T10:35:28.421Z,315
2019-03-09T10:36:28.429Z,287
2019-03-09T10:37:28.383Z,267
2019-03-09T10:38:28.402Z,303
2019-03-09T10:39:28.444Z,342
2019-03-09T10:40:28.427Z,399
2019-03-09T10:41:28.382Z,405
2019-03-09T10:42:28.318Z,405
2019-03-09T10:43:28.492Z,393
2019-03-09T10:44:28.424Z,366
2019-03-09T10:45:28.421Z,358
2019-03-09T10:46:28.425Z,353
2019-03-09T10:47:28.504Z,354
2019-03-09T10:48:28.376Z,362
2019-03-09T10:49:28.419Z,372
2019-03-09T10:50:28.413Z,377
2019-03-09T10:51:28.460Z,381
2019-03-09T10:52:28.500Z,388
2019-03-09T10:53:28.435Z,385
2019-03-09T10:54:35.709Z,389
2019-03-09T10:55:28.422Z,386
2019-03-09T10:56:28.501Z,371
2019-03-09T10:57:28.500Z,363
2019-03-09T10:58:28.452Z,366
2019-03-09T10:59:28.502Z,345
2019-03-09T11:00:28.450Z,335
2019-03-09T11:01:28.383Z,341
2019-03-09T11:02:28.505Z,350
2019-03-09T11:03:28.510Z,355
2019-03-09T11:04:28.449Z,340
2019-03-09T11:05:28.520Z,330
2019-03-09T11:06:28.517Z,319
2019-03-09T11:07:28.453Z,307
2019-03-09T11:08:28.516Z,293
2019-03-09T11:09:28.516Z,292
2019-03-09T11:10:28.527Z,303
2019-03-09T11:11:28.520Z,320
2019-03-09T11:12:28.463Z,323
2019-03-09T11:13:28.477Z,320
2019-03-09T11:14:28.431Z,319
2019-03-09T11:15:28.447Z,321
2019-03-09T11:16:28.440Z,325
2019-03-09T11:17:28.546Z,330
2019-03-09T11:18:28.441Z,332
2019-03-09T11:19:28.485Z,335
2019-03-09T11:20:28.527Z,339
2019-03-09T11:21:28.428Z,359
2019-03-09T11:22:28.516Z,366
2019-03-09T11:23:28.416Z,345
2019-03-09T11:24:28.446Z,329
2019-03-09T11:25:28.446Z,314
2019-03-09T11:26:28.387Z,294
2019-03-09T11:27:28.393Z,179
2019-03-09T11:28:28.449Z,284
2019-03-09T11:29:28.497Z,282
2019-03-09T11:30:28.451Z,279
2019-03-09T11:31:28.485Z,283
2019-03-09T11:32:28.441Z,286
2019-03-09T11:33:28.523Z,291
2019-03-09T11:34:28.410Z,301
2019-03-09T11:35:28.491Z,311
2019-03-09T11:36:28.531Z,318
2019-03-09T11:37:28.526Z,322
2019-03-09T11:38:28.493Z,324
2019-03-09T11:39:28.471Z,329
2019-03-09T11:40:28.438Z,333
2019-03-09T11:41:28.544Z,345
2019-03-09T11:42:28.535Z,355
2019-03-09T11:43:28.537Z,370
2019-03-09T11:44:28.530Z,393
2019-03-09T11:45:28.520Z,423
2019-03-09T11:46:28.478Z,425
2019-03-09T11:47:28.480Z,405
2019-03-09T11:48:28.500Z,395
2019-03-09T11:49:28.428Z,375
2019-03-09T11:50:28.447Z,368
2019-03-09T11:51:28.439Z,373
2019-03-09T11:52:29.321Z,405
2019-03-09T11:53:28.455Z,442
2019-03-09T11:54:28.553Z,472
2019-03-09T11:55:28.502Z,450
2019-03-09T11:56:28.469Z,432
2019-03-09T11:57:28.468Z,409
2019-03-09T11:58:28.541Z,361
2019-03-09T11:59:28.517Z,347
2019-03-09T12:00:28.554Z,333
2019-03-09T12:01:28.542Z,320
2019-03-09T12:02:38.296Z,309
2019-03-09T12:03:28.447Z,305
2019-03-09T12:04:28.565Z,301
2019-03-09T12:05:28.500Z,298
2019-03-09T12:06:28.493Z,301
2019-03-09T12:07:28.570Z,308
2019-03-09T12:08:28.565Z,314
2019-03-09T12:09:28.555Z,322
2019-03-09T12:10:28.561Z,333
2019-03-09T12:11:28.563Z,344
2019-03-09T12:12:28.568Z,356
2019-03-09T12:13:28.499Z,350
2019-03-09T12:14:28.572Z,356
2019-03-09T12:15:28.496Z,354
2019-03-09T12:16:28.564Z,359
2019-03-09T12:17:28.572Z,349
2019-03-09T12:18:28.498Z,340
2019-03-09T12:19:28.567Z,335
2019-03-09T12:20:28.512Z,327
2019-03-09T12:21:28.576Z,336
2019-03-09T12:22:28.581Z,333
2019-03-09T12:23:28.455Z,340
2019-03-09T12:24:28.466Z,346
2019-03-09T12:25:28.540Z,346
2019-03-09T12:26:28.527Z,347
2019-03-09T12:27:28.402Z,354
2019-03-09T12:28:28.427Z,352
2019-03-09T12:29:28.526Z,375
2019-03-09T12:30:28.494Z,407
2019-03-09T12:31:28.521Z,415
2019-03-09T12:32:28.550Z,415
2019-03-09T12:33:28.444Z,386
2019-03-09T12:34:28.579Z,361
2019-03-09T12:35:28.589Z,373
2019-03-09T12:36:28.513Z,375
2019-03-09T12:37:28.582Z,404
2019-03-09T12:38:28.594Z,448
2019-03-09T12:39:28.580Z,477
2019-03-09T12:40:28.586Z,520
2019-03-09T12:41:28.517Z,568
2019-03-09T12:42:28.587Z,400
2019-03-09T12:43:28.594Z,522
2019-03-09T12:44:28.492Z,799
2019-03-09T12:45:28.487Z,784
2019-03-09T12:46:28.506Z,757
2019-03-09T12:47:28.546Z,827
2019-03-09T12:48:28.578Z,711
2019-03-09T12:49:28.582Z,643
2019-03-09T12:50:28.477Z,759
2019-03-09T12:51:28.584Z,665
2019-03-09T12:52:28.576Z,576
2019-03-09T12:53:28.497Z,365
2019-03-09T12:54:28.617Z,474
2019-03-09T12:55:28.521Z,393
2019-03-09T12:56:28.531Z,442
2019-03-09T12:57:28.593Z,432
2019-03-09T12:58:28.607Z,473
2019-03-09T12:59:28.594Z,455
2019-03-09T13:00:28.531Z,532
2019-03-09T13:01:28.595Z,550
2019-03-09T13:02:28.594Z,516
2019-03-09T13:03:28.612Z,553
2019-03-09T13:04:28.607Z,471
2019-03-09T13:05:28.536Z,449
2019-03-09T13:06:28.600Z,311
2019-03-09T13:07:28.533Z,302
2019-03-09T13:08:28.538Z,668
2019-03-09T13:09:28.603Z,676
2019-03-09T13:10:28.610Z,750
2019-03-09T13:11:28.605Z,743
2019-03-09T13:12:28.538Z,724
2019-03-09T13:13:28.543Z,668
2019-03-09T13:14:28.608Z,521
2019-03-09T13:15:28.550Z,314
2019-03-09T13:16:28.542Z,326
2019-03-09T13:17:28.608Z,377
2019-03-09T13:18:28.541Z,532
2019-03-09T13:19:28.612Z,501
2019-03-09T13:20:28.606Z,490
2019-03-09T13:21:28.545Z,649
2019-03-09T13:22:28.610Z,533
2019-03-09T13:23:28.546Z,752
2019-03-09T13:24:28.563Z,471
2019-03-09T13:25:28.520Z,336
2019-03-09T13:26:28.469Z,718
2019-03-09T13:27:28.471Z,694
2019-03-09T13:28:28.495Z,630
2019-03-09T13:29:28.522Z,390
2019-03-09T13:30:28.468Z,418
2019-03-09T13:31:28.541Z,741
2019-03-09T13:32:28.526Z,791
2019-03-09T13:33:28.553Z,778
2019-03-09T13:34:28.618Z,694
2019-03-09T13:35:28.565Z,692
2019-03-09T13:36:28.573Z,661
2019-03-09T13:37:28.630Z,660
2019-03-09T13:38:28.554Z,669
2019-03-09T13:39:28.621Z,687
2019-03-09T13:40:28.626Z,687
2019-03-09T13:41:28.565Z,657
2019-03-09T13:42:28.628Z,652
2019-03-09T13:43:28.562Z,583
2019-03-09T13:44:28.562Z,607
2019-03-09T13:45:28.565Z,627
2019-03-09T13:46:28.632Z,531
2019-03-09T13:47:28.630Z,572
2019-03-09T13:48:28.631Z,204
2019-03-09T13:49:28.571Z,382
2019-03-09T13:50:28.566Z,656
2019-03-09T13:51:28.631Z,269
2019-03-09T13:52:28.586Z,307
2019-03-09T13:53:28.545Z,262
2019-03-09T13:54:28.524Z,257
2019-03-09T13:55:28.536Z,302
2019-03-09T13:56:28.553Z,723
2019-03-09T13:57:28.576Z,699
2019-03-09T13:58:28.526Z,199
2019-03-09T13:59:28.594Z,222
2019-03-09T14:00:28.538Z,743
2019-03-09T14:01:28.545Z,643
2019-03-09T14:02:28.503Z,339
2019-03-09T14:03:28.534Z,634
2019-03-09T14:04:28.458Z,694
2019-03-09T14:05:28.512Z,443
2019-03-09T14:06:28.461Z,262
2019-03-09T14:07:28.568Z,254
2019-03-09T14:08:28.504Z,256
2019-03-09T14:09:28.687Z,262
2019-03-09T14:10:28.581Z,277
2019-03-09T14:11:28.466Z,240
2019-03-09T14:12:28.522Z,152
2019-03-09T14:13:28.569Z,108
2019-03-09T14:14:28.585Z,97
2019-03-09T14:15:28.595Z,93